EXS527 EGNT-LGKR
Flight info
| Callsign | EXS527 |
|---|---|
| Flight time | N/A |
| Altitude | 37000 |
| Route | NATEB DCT ERLOT DCT TOPPA DCT SPY DCT ASBON DCT TUSUK DCT UTABA DCT BEMKI DCT ELMEM DCT DIRAB DCT VESAL DCT UPIRO DCT PEVAL DCT NAKIT DCT PUL DCT AIOSA DCT ENOXA DCT KAPPO DCT TIGRA |
| Aircraft | B738/M-SDE2E3FGHIRWXY/LB1 |
Departure
| Time | 2026-05-04 07:54 |
|---|---|
| Airport | Newcastle International Airport (EGNT) |
Arrival
| Time | N/A |
|---|---|
| Airport | Corfu Ioannis Kapodistrias International Airport (LGKR) |
| Time | Latitude | Longitude | Altitude | Speed | Heading |
|---|---|---|---|---|---|
| 2026-05-04 07:29 | 55.04079 | -1.70406 | 266 ft | 0 kts | 274° |
| 2026-05-04 07:44 | 55.04080 | -1.70387 | 266 ft | 3 kts | 286° |
| 2026-05-04 07:44 | 55.04073 | -1.70351 | 266 ft | 4 kts | 291° |
| 2026-05-04 07:44 | 55.04061 | -1.70315 | 266 ft | 4 kts | 339° |
| 2026-05-04 07:45 | 55.04038 | -1.70314 | 266 ft | 4 kts | 16° |
| 2026-05-04 07:45 | 55.04017 | -1.70335 | 266 ft | 4 kts | 55° |
| 2026-05-04 07:45 | 55.04005 | -1.70376 | 266 ft | 4 kts | 63° |
| 2026-05-04 07:45 | 55.03989 | -1.70405 | 266 ft | 4 kts | 15° |
| 2026-05-04 07:46 | 55.03975 | -1.70408 | 266 ft | 4 kts | 281° |
| 2026-05-04 07:46 | 55.03980 | -1.70370 | 266 ft | 4 kts | 225° |
| 2026-05-04 07:46 | 55.03999 | -1.70340 | 266 ft | 4 kts | 226° |
| 2026-05-04 07:46 | 55.04011 | -1.70320 | 266 ft | 0 kts | 220° |
| 2026-05-04 07:49 | 55.03848 | -1.70392 | 266 ft | 15 kts | 185° |
| 2026-05-04 07:49 | 55.03779 | -1.70287 | 264 ft | 16 kts | 96° |
| 2026-05-04 07:49 | 55.03773 | -1.70068 | 261 ft | 21 kts | 89° |
| 2026-05-04 07:50 | 55.03787 | -1.69809 | 258 ft | 22 kts | 80° |
| 2026-05-04 07:50 | 55.03825 | -1.69556 | 256 ft | 21 kts | 72° |
| 2026-05-04 07:50 | 55.03884 | -1.69318 | 253 ft | 22 kts | 65° |
| 2026-05-04 07:50 | 55.03953 | -1.69060 | 251 ft | 23 kts | 65° |
| 2026-05-04 07:51 | 55.04020 | -1.68811 | 249 ft | 22 kts | 65° |
| 2026-05-04 07:51 | 55.04085 | -1.68567 | 248 ft | 22 kts | 65° |
| 2026-05-04 07:51 | 55.04148 | -1.68330 | 247 ft | 21 kts | 65° |
| 2026-05-04 07:51 | 55.04208 | -1.68100 | 246 ft | 21 kts | 65° |
| 2026-05-04 07:52 | 55.04267 | -1.67877 | 246 ft | 20 kts | 65° |
| 2026-05-04 07:52 | 55.04324 | -1.67663 | 243 ft | 16 kts | 65° |
| 2026-05-04 07:52 | 55.04330 | -1.67486 | 241 ft | 15 kts | 95° |
| 2026-05-04 07:52 | 55.04275 | -1.67363 | 240 ft | 14 kts | 169° |
| 2026-05-04 07:53 | 55.04201 | -1.67437 | 241 ft | 13 kts | 245° |
| 2026-05-04 07:54 | 55.01752 | -1.76996 | 2439 ft | 204 kts | 246° |
| 2026-05-04 07:55 | 55.01284 | -1.79490 | 2674 ft | 229 kts | 265° |
| 2026-05-04 07:55 | 55.01605 | -1.82224 | 3190 ft | 239 kts | 296° |
| 2026-05-04 07:55 | 55.02758 | -1.84440 | 3565 ft | 257 kts | 328° |
| 2026-05-04 07:55 | 55.04464 | -1.85363 | 4329 ft | 260 kts | 358° |
| 2026-05-04 07:56 | 55.06231 | -1.84733 | 5150 ft | 263 kts | 25° |
| 2026-05-04 07:56 | 55.07645 | -1.82707 | 5875 ft | 270 kts | 53° |
| 2026-05-04 07:56 | 55.08545 | -1.79804 | 6620 ft | 275 kts | 64° |
| 2026-05-04 07:56 | 55.09311 | -1.76717 | 7297 ft | 279 kts | 65° |
| 2026-05-04 07:57 | 55.10066 | -1.73575 | 7989 ft | 283 kts | 65° |
| 2026-05-04 07:57 | 55.10795 | -1.70359 | 8694 ft | 287 kts | 71° |
| 2026-05-04 07:57 | 55.11309 | -1.66973 | 9406 ft | 291 kts | 75° |
| 2026-05-04 07:57 | 55.11785 | -1.63552 | 10090 ft | 295 kts | 75° |
| 2026-05-04 07:58 | 55.12276 | -1.59994 | 10413 ft | 312 kts | 75° |
| 2026-05-04 07:58 | 55.12804 | -1.56175 | 10582 ft | 333 kts | 75° |
| 2026-05-04 07:58 | 55.13365 | -1.52141 | 10887 ft | 348 kts | 75° |
| 2026-05-04 07:58 | 55.13946 | -1.47983 | 11456 ft | 354 kts | 75° |
| 2026-05-04 07:59 | 55.14445 | -1.43761 | 12112 ft | 358 kts | 85° |
| 2026-05-04 07:59 | 55.14097 | -1.39457 | 12768 ft | 362 kts | 112° |
| 2026-05-04 07:59 | 55.12835 | -1.35653 | 13524 ft | 363 kts | 123° |
| 2026-05-04 07:59 | 55.11500 | -1.31874 | 14179 ft | 367 kts | 122° |
| 2026-05-04 08:00 | 55.10201 | -1.28002 | 14794 ft | 372 kts | 121° |
| 2026-05-04 08:00 | 55.08915 | -1.24067 | 15441 ft | 375 kts | 120° |
| 2026-05-04 08:00 | 55.07626 | -1.20073 | 16109 ft | 378 kts | 120° |
| 2026-05-04 08:02 | 54.98406 | -0.91301 | 20381 ft | 398 kts | 119° |
| 2026-05-04 08:02 | 54.97046 | -0.87084 | 20923 ft | 401 kts | 119° |
| 2026-05-04 08:02 | 54.95674 | -0.82831 | 21436 ft | 405 kts | 119° |
| 2026-05-04 08:03 | 54.94284 | -0.78535 | 21956 ft | 408 kts | 119° |
| 2026-05-04 08:03 | 54.92888 | -0.74227 | 22495 ft | 411 kts | 119° |
| 2026-05-04 08:03 | 54.91478 | -0.69883 | 23010 ft | 414 kts | 118° |
| 2026-05-04 08:03 | 54.90058 | -0.65517 | 23522 ft | 417 kts | 118° |
| 2026-05-04 08:04 | 54.88624 | -0.61117 | 23956 ft | 419 kts | 118° |
| 2026-05-04 08:04 | 54.87182 | -0.56697 | 24381 ft | 422 kts | 118° |
| 2026-05-04 08:04 | 54.85731 | -0.52261 | 24804 ft | 424 kts | 118° |
| 2026-05-04 08:04 | 54.84269 | -0.47798 | 25222 ft | 426 kts | 118° |
| 2026-05-04 08:05 | 54.82800 | -0.43323 | 25621 ft | 429 kts | 118° |
| 2026-05-04 08:05 | 54.81319 | -0.38817 | 26026 ft | 431 kts | 117° |
| 2026-05-04 08:05 | 54.79829 | -0.34296 | 26405 ft | 433 kts | 117° |
| 2026-05-04 08:05 | 54.78329 | -0.29751 | 26794 ft | 435 kts | 117° |
| 2026-05-04 08:06 | 54.76821 | -0.25190 | 27169 ft | 438 kts | 117° |
| 2026-05-04 08:06 | 54.75818 | -0.22162 | 27423 ft | 439 kts | 117° |
| 2026-05-04 08:06 | 54.73797 | -0.16072 | 27963 ft | 440 kts | 117° |
| 2026-05-04 08:06 | 54.72271 | -0.11486 | 28402 ft | 441 kts | 117° |
| 2026-05-04 08:08 | 54.61836 | 0.19665 | 30396 ft | 457 kts | 117° |
| 2026-05-04 08:08 | 54.60237 | 0.24401 | 30717 ft | 457 kts | 117° |
| 2026-05-04 08:10 | 54.47598 | 0.61523 | 33443 ft | 450 kts | 118° |
| 2026-05-04 08:11 | 54.46005 | 0.66167 | 33651 ft | 451 kts | 118° |
| 2026-05-04 08:11 | 54.42824 | 0.75402 | 34345 ft | 447 kts | 118° |
| 2026-05-04 08:11 | 54.41235 | 0.80003 | 34544 ft | 448 kts | 119° |
| 2026-05-04 08:12 | 54.39637 | 0.84623 | 34699 ft | 450 kts | 119° |
| 2026-05-04 08:12 | 54.38037 | 0.89240 | 34923 ft | 450 kts | 119° |
| 2026-05-04 08:12 | 54.36433 | 0.93860 | 35171 ft | 450 kts | 119° |
| 2026-05-04 08:12 | 54.34829 | 0.98471 | 35357 ft | 451 kts | 120° |
| 2026-05-04 08:13 | 54.33221 | 1.03086 | 35532 ft | 452 kts | 120° |
| 2026-05-04 08:13 | 54.31608 | 1.07704 | 35722 ft | 452 kts | 120° |
| 2026-05-04 08:13 | 54.28343 | 1.17029 | 35874 ft | 459 kts | 121° |
| 2026-05-04 08:14 | 54.26708 | 1.21684 | 36251 ft | 455 kts | 121° |
| 2026-05-04 08:14 | 54.25104 | 1.26243 | 36537 ft | 452 kts | 121° |
| 2026-05-04 08:14 | 54.23476 | 1.30862 | 36639 ft | 455 kts | 122° |
| 2026-05-04 08:16 | 54.11922 | 1.63395 | 37035 ft | 455 kts | 122° |
| 2026-05-04 08:16 | 54.08638 | 1.72566 | 37038 ft | 452 kts | 123° |
| 2026-05-04 08:17 | 54.05364 | 1.81673 | 37040 ft | 450 kts | 123° |
| 2026-05-04 08:17 | 54.02089 | 1.90748 | 37037 ft | 449 kts | 123° |
| 2026-05-04 08:19 | 53.88893 | 2.26989 | 37027 ft | 454 kts | 123° |
| 2026-05-04 08:20 | 53.85545 | 2.36099 | 37030 ft | 456 kts | 123° |
| 2026-05-04 08:20 | 53.82179 | 2.45226 | 37029 ft | 458 kts | 124° |
| 2026-05-04 08:21 | 53.78821 | 2.54300 | 37023 ft | 459 kts | 124° |
| 2026-05-04 08:21 | 53.75422 | 2.63449 | 37010 ft | 460 kts | 124° |
| 2026-05-04 08:22 | 53.72017 | 2.72582 | 37007 ft | 460 kts | 124° |
| 2026-05-04 08:24 | 53.58355 | 3.08894 | 37004 ft | 457 kts | 124° |
| 2026-05-04 08:24 | 53.54934 | 3.17904 | 37010 ft | 457 kts | 125° |
| 2026-05-04 08:25 | 53.51514 | 3.26880 | 37010 ft | 456 kts | 125° |
| 2026-05-04 08:25 | 53.48089 | 3.35840 | 37011 ft | 456 kts | 125° |
| 2026-05-04 08:27 | 53.32392 | 3.68391 | 37011 ft | 449 kts | 141° |
| 2026-05-04 08:28 | 53.27744 | 3.75382 | 37003 ft | 450 kts | 141° |
| 2026-05-04 08:28 | 53.23109 | 3.82417 | 37003 ft | 450 kts | 141° |
| 2026-05-04 08:29 | 53.18483 | 3.89454 | 36995 ft | 450 kts | 141° |
| 2026-05-04 08:31 | 52.99934 | 4.17468 | 36998 ft | 450 kts | 141° |
| 2026-05-04 08:33 | 52.81409 | 4.45102 | 36993 ft | 450 kts | 142° |
| 2026-05-04 08:35 | 52.62714 | 4.72661 | 36983 ft | 451 kts | 142° |
| 2026-05-04 08:35 | 52.58024 | 4.79525 | 36987 ft | 452 kts | 142° |
| 2026-05-04 08:37 | 52.41935 | 5.04254 | 36984 ft | 453 kts | 141° |
| 2026-05-04 08:38 | 52.37382 | 5.11390 | 36990 ft | 453 kts | 141° |
| 2026-05-04 08:38 | 52.32815 | 5.18495 | 36980 ft | 452 kts | 141° |
| 2026-05-04 08:40 | 52.14616 | 5.46568 | 36963 ft | 449 kts | 142° |
| 2026-05-04 08:41 | 52.10073 | 5.53525 | 36961 ft | 447 kts | 142° |
| 2026-05-04 08:41 | 52.05579 | 5.60388 | 36966 ft | 445 kts | 142° |
| 2026-05-04 08:42 | 52.01076 | 5.67243 | 36965 ft | 443 kts | 142° |
| 2026-05-04 08:42 | 51.96579 | 5.74070 | 36989 ft | 441 kts | 142° |
| 2026-05-04 08:43 | 51.92069 | 5.80893 | 36989 ft | 444 kts | 142° |
| 2026-05-04 08:43 | 51.87555 | 5.87704 | 36964 ft | 445 kts | 143° |
| 2026-05-04 08:44 | 51.83033 | 5.94514 | 36976 ft | 441 kts | 143° |
| 2026-05-04 08:46 | 51.65212 | 6.21147 | 36993 ft | 434 kts | 143° |
| 2026-05-04 08:46 | 51.60806 | 6.27684 | 36999 ft | 433 kts | 143° |
| 2026-05-04 08:47 | 51.56369 | 6.34250 | 36991 ft | 434 kts | 143° |
| 2026-05-04 08:47 | 51.51918 | 6.40815 | 37003 ft | 435 kts | 143° |
| 2026-05-04 08:48 | 51.47442 | 6.47401 | 36992 ft | 438 kts | 143° |
| 2026-05-04 08:48 | 51.42941 | 6.54005 | 36992 ft | 440 kts | 143° |
| 2026-05-04 08:49 | 51.38408 | 6.60639 | 36985 ft | 442 kts | 143° |
| 2026-05-04 08:50 | 51.22472 | 6.83820 | 36990 ft | 441 kts | 143° |
| 2026-05-04 08:51 | 51.17932 | 6.90382 | 36989 ft | 439 kts | 143° |
| 2026-05-04 08:51 | 51.13412 | 6.96895 | 36994 ft | 437 kts | 143° |
| 2026-05-04 08:52 | 51.08908 | 7.03369 | 36985 ft | 435 kts | 143° |
| 2026-05-04 08:52 | 51.04426 | 7.09794 | 36989 ft | 433 kts | 143° |
| 2026-05-04 08:54 | 50.86561 | 7.35223 | 36998 ft | 431 kts | 144° |
| 2026-05-04 08:55 | 50.82083 | 7.41557 | 36999 ft | 433 kts | 144° |
| 2026-05-04 08:55 | 50.77583 | 7.47906 | 36998 ft | 434 kts | 144° |
| 2026-05-04 09:01 | 50.26284 | 8.02560 | 37018 ft | 430 kts | 152° |
| 2026-05-04 09:01 | 50.21259 | 8.07656 | 37021 ft | 430 kts | 152° |
| 2026-05-04 09:02 | 50.16241 | 8.12732 | 37033 ft | 430 kts | 152° |
| 2026-05-04 09:02 | 50.11109 | 8.17423 | 37037 ft | 425 kts | 159° |
| 2026-05-04 09:03 | 50.05745 | 8.21259 | 37045 ft | 424 kts | 161° |
| 2026-05-04 09:03 | 50.00361 | 8.25028 | 37028 ft | 425 kts | 161° |
| 2026-05-04 09:04 | 49.94975 | 8.28851 | 37041 ft | 426 kts | 160° |
| 2026-05-04 09:04 | 49.89580 | 8.32712 | 37015 ft | 427 kts | 160° |
| 2026-05-04 09:05 | 49.84219 | 8.36553 | 37016 ft | 428 kts | 160° |
| 2026-05-04 09:05 | 49.78799 | 8.40429 | 37018 ft | 429 kts | 160° |
| 2026-05-04 09:06 | 49.73369 | 8.44301 | 37020 ft | 430 kts | 160° |
| 2026-05-04 09:08 | 49.51560 | 8.59756 | 37016 ft | 431 kts | 160° |
| 2026-05-04 09:08 | 49.46103 | 8.63599 | 37022 ft | 431 kts | 160° |
| 2026-05-04 09:09 | 49.40653 | 8.67428 | 37010 ft | 430 kts | 160° |
| 2026-05-04 09:09 | 49.35252 | 8.71213 | 37026 ft | 429 kts | 160° |
| 2026-05-04 09:10 | 49.29824 | 8.75007 | 37015 ft | 428 kts | 160° |
| 2026-05-04 09:10 | 49.24403 | 8.78788 | 37018 ft | 427 kts | 160° |
| 2026-05-04 09:11 | 49.18997 | 8.82549 | 37027 ft | 427 kts | 160° |
| 2026-05-04 09:11 | 49.13587 | 8.86303 | 37010 ft | 426 kts | 160° |
| 2026-05-04 09:12 | 49.08191 | 8.90038 | 37011 ft | 425 kts | 160° |
| 2026-05-04 09:14 | 48.86603 | 9.04895 | 37025 ft | 427 kts | 160° |
| 2026-05-04 09:14 | 48.81182 | 9.08604 | 37020 ft | 428 kts | 160° |
| 2026-05-04 09:15 | 48.75746 | 9.12313 | 37020 ft | 429 kts | 160° |
| 2026-05-04 09:15 | 48.70303 | 9.16020 | 37025 ft | 429 kts | 160° |
| 2026-05-04 09:17 | 48.45772 | 9.32616 | 37020 ft | 430 kts | 160° |
| 2026-05-04 09:18 | 48.40304 | 9.36290 | 37020 ft | 430 kts | 160° |
| 2026-05-04 09:18 | 48.34844 | 9.39952 | 37029 ft | 430 kts | 160° |
| 2026-05-04 09:19 | 48.29381 | 9.43608 | 37025 ft | 431 kts | 160° |
| 2026-05-04 09:19 | 48.24052 | 9.47820 | 37018 ft | 437 kts | 147° |
| 2026-05-04 09:20 | 48.19340 | 9.53614 | 37033 ft | 439 kts | 144° |
| 2026-05-04 09:20 | 48.14649 | 9.59492 | 37034 ft | 439 kts | 144° |
| 2026-05-04 09:21 | 48.09940 | 9.65316 | 37042 ft | 439 kts | 144° |
| 2026-05-04 09:21 | 48.05214 | 9.71105 | 37039 ft | 439 kts | 145° |
| 2026-05-04 09:22 | 48.00484 | 9.76874 | 37034 ft | 439 kts | 145° |
| 2026-05-04 09:22 | 47.95757 | 9.82626 | 37027 ft | 439 kts | 145° |
| 2026-05-04 09:23 | 47.91020 | 9.88377 | 37037 ft | 439 kts | 145° |
| 2026-05-04 09:23 | 47.86282 | 9.94118 | 37043 ft | 439 kts | 145° |
| 2026-05-04 09:25 | 47.67323 | 10.16945 | 37028 ft | 439 kts | 145° |
| 2026-05-04 09:26 | 47.62566 | 10.22640 | 37033 ft | 439 kts | 145° |
| 2026-05-04 09:26 | 47.57804 | 10.28328 | 37032 ft | 440 kts | 145° |
| 2026-05-04 09:27 | 47.52927 | 10.33736 | 37021 ft | 437 kts | 150° |
| 2026-05-04 09:27 | 47.47850 | 10.38570 | 37031 ft | 436 kts | 151° |
| 2026-05-04 09:28 | 47.42759 | 10.43405 | 37040 ft | 435 kts | 150° |
| 2026-05-04 09:28 | 47.37692 | 10.48300 | 37034 ft | 435 kts | 150° |
| 2026-05-04 09:29 | 47.32638 | 10.53198 | 37051 ft | 434 kts | 150° |
| 2026-05-04 09:29 | 47.27589 | 10.58087 | 37064 ft | 433 kts | 149° |
| 2026-05-04 09:30 | 47.22665 | 10.63205 | 37029 ft | 434 kts | 147° |
| 2026-05-04 09:30 | 47.17779 | 10.68404 | 37042 ft | 434 kts | 147° |
| 2026-05-04 09:31 | 47.12875 | 10.73568 | 37087 ft | 434 kts | 148° |
| 2026-05-04 09:31 | 47.07968 | 10.78693 | 37087 ft | 437 kts | 148° |
| 2026-05-04 09:32 | 47.02964 | 10.83895 | 37091 ft | 442 kts | 148° |
| 2026-05-04 09:34 | 46.83112 | 11.04436 | 37155 ft | 433 kts | 148° |
| 2026-05-04 09:34 | 46.78607 | 11.10301 | 37168 ft | 437 kts | 135° |
| 2026-05-04 09:35 | 46.74484 | 11.16837 | 37149 ft | 439 kts | 135° |
| 2026-05-04 09:35 | 46.70362 | 11.23342 | 37155 ft | 440 kts | 135° |
| 2026-05-04 09:37 | 46.53487 | 11.49422 | 37089 ft | 444 kts | 136° |
| 2026-05-04 09:38 | 46.49240 | 11.55941 | 37104 ft | 445 kts | 136° |
| 2026-05-04 09:38 | 46.44975 | 11.62473 | 37122 ft | 446 kts | 136° |
| 2026-05-04 09:39 | 46.40706 | 11.68995 | 37123 ft | 446 kts | 136° |
| 2026-05-04 09:39 | 46.36503 | 11.75191 | 37120 ft | 446 kts | 139° |
| 2026-05-04 09:40 | 46.31933 | 11.81392 | 37117 ft | 445 kts | 140° |
| 2026-05-04 09:40 | 46.27402 | 11.87479 | 37118 ft | 444 kts | 139° |
| 2026-05-04 09:42 | 46.09451 | 12.11793 | 37123 ft | 442 kts | 139° |
| 2026-05-04 09:43 | 46.04957 | 12.17853 | 37126 ft | 443 kts | 139° |
| 2026-05-04 09:43 | 46.00431 | 12.23942 | 37126 ft | 445 kts | 139° |
| 2026-05-04 09:44 | 45.95907 | 12.30015 | 37119 ft | 446 kts | 139° |
| 2026-05-04 09:46 | 45.77712 | 12.54297 | 37122 ft | 448 kts | 139° |
| 2026-05-04 09:46 | 45.73246 | 12.60223 | 37120 ft | 449 kts | 139° |
| 2026-05-04 09:47 | 45.68690 | 12.66256 | 37102 ft | 449 kts | 139° |
| 2026-05-04 09:49 | 45.51521 | 12.92132 | 37109 ft | 450 kts | 133° |
| 2026-05-04 09:51 | 45.37675 | 13.14327 | 37110 ft | 450 kts | 134° |
| 2026-05-04 09:51 | 45.33511 | 13.20964 | 37113 ft | 450 kts | 134° |
| 2026-05-04 09:52 | 45.29345 | 13.27616 | 37115 ft | 450 kts | 133° |
| 2026-05-04 09:52 | 45.25232 | 13.34333 | 37121 ft | 451 kts | 133° |
| 2026-05-04 09:53 | 45.21112 | 13.41051 | 37122 ft | 452 kts | 133° |
| 2026-05-04 09:53 | 45.16967 | 13.47749 | 37118 ft | 452 kts | 133° |
| 2026-05-04 09:54 | 45.12818 | 13.54368 | 37125 ft | 453 kts | 133° |
| 2026-05-04 09:54 | 45.08629 | 13.61030 | 37116 ft | 453 kts | 133° |
| 2026-05-04 09:55 | 45.04434 | 13.67697 | 37126 ft | 454 kts | 133° |
| 2026-05-04 09:55 | 45.00230 | 13.74369 | 37127 ft | 455 kts | 133° |
| 2026-05-04 09:56 | 44.96011 | 13.81048 | 37156 ft | 456 kts | 133° |
| 2026-05-04 09:56 | 44.91785 | 13.87723 | 37152 ft | 456 kts | 133° |
| 2026-05-04 09:57 | 44.87403 | 13.94203 | 37157 ft | 455 kts | 140° |
| 2026-05-04 09:57 | 44.82583 | 13.99968 | 37156 ft | 455 kts | 142° |
| 2026-05-04 09:58 | 44.77706 | 14.05638 | 37153 ft | 455 kts | 142° |
| 2026-05-04 09:58 | 44.72847 | 14.11350 | 37133 ft | 455 kts | 142° |
| 2026-05-04 10:00 | 44.53522 | 14.34252 | 37141 ft | 456 kts | 141° |
| 2026-05-04 10:04 | 44.19400 | 14.74214 | 37146 ft | 458 kts | 142° |
| 2026-05-04 10:04 | 44.14499 | 14.79901 | 37141 ft | 459 kts | 142° |
| 2026-05-04 10:05 | 44.09594 | 14.85582 | 37144 ft | 459 kts | 142° |
| 2026-05-04 10:05 | 44.04685 | 14.91254 | 37144 ft | 458 kts | 142° |
| 2026-05-04 10:06 | 43.99809 | 14.96876 | 37133 ft | 459 kts | 142° |
| 2026-05-04 10:06 | 43.94901 | 15.02522 | 37150 ft | 458 kts | 142° |
| 2026-05-04 10:08 | 43.77685 | 15.22229 | 37156 ft | 459 kts | 142° |
| 2026-05-04 10:08 | 43.72755 | 15.27844 | 37150 ft | 459 kts | 142° |
| 2026-05-04 10:09 | 43.67817 | 15.33456 | 37146 ft | 460 kts | 142° |
| 2026-05-04 10:09 | 43.62880 | 15.39054 | 37160 ft | 460 kts | 142° |
| 2026-05-04 10:10 | 43.57923 | 15.44662 | 37155 ft | 460 kts | 142° |
| 2026-05-04 10:10 | 43.52963 | 15.50262 | 37152 ft | 461 kts | 142° |
| 2026-05-04 10:11 | 43.48029 | 15.55820 | 37150 ft | 462 kts | 142° |
| 2026-05-04 10:11 | 43.43018 | 15.61453 | 37156 ft | 462 kts | 142° |
| 2026-05-04 10:12 | 43.38066 | 15.67007 | 37150 ft | 463 kts | 142° |
| 2026-05-04 10:12 | 43.33071 | 15.72597 | 37158 ft | 463 kts | 142° |
| 2026-05-04 10:13 | 43.28063 | 15.78190 | 37156 ft | 464 kts | 142° |
| 2026-05-04 10:13 | 43.23052 | 15.83773 | 37156 ft | 465 kts | 142° |
| 2026-05-04 10:14 | 43.18024 | 15.89363 | 37158 ft | 465 kts | 142° |
| 2026-05-04 10:16 | 42.97863 | 16.11657 | 37161 ft | 467 kts | 142° |
| 2026-05-04 10:16 | 42.92795 | 16.17230 | 37160 ft | 467 kts | 142° |
| 2026-05-04 10:17 | 42.87764 | 16.22751 | 37154 ft | 467 kts | 142° |
| 2026-05-04 10:19 | 42.67444 | 16.44929 | 37157 ft | 469 kts | 142° |
| 2026-05-04 10:19 | 42.62343 | 16.50467 | 37152 ft | 469 kts | 142° |
| 2026-05-04 10:20 | 42.57238 | 16.55997 | 37157 ft | 470 kts | 142° |
| 2026-05-04 10:20 | 42.52155 | 16.61492 | 37157 ft | 470 kts | 142° |
| 2026-05-04 10:21 | 42.47029 | 16.67019 | 37158 ft | 471 kts | 142° |
| 2026-05-04 10:21 | 42.41900 | 16.72540 | 37165 ft | 472 kts | 142° |
| 2026-05-04 10:22 | 42.34189 | 16.80816 | 37162 ft | 473 kts | 142° |
| 2026-05-04 10:23 | 42.29029 | 16.86340 | 37163 ft | 473 kts | 142° |
| 2026-05-04 10:25 | 42.08296 | 17.08417 | 37167 ft | 476 kts | 142° |
| 2026-05-04 10:25 | 42.03095 | 17.13926 | 37166 ft | 476 kts | 142° |
| 2026-05-04 10:26 | 41.97881 | 17.19440 | 37172 ft | 477 kts | 142° |
| 2026-05-04 10:26 | 41.92620 | 17.24778 | 37155 ft | 477 kts | 149° |
| 2026-05-04 10:27 | 41.86668 | 17.28575 | 37169 ft | 474 kts | 159° |
| 2026-05-04 10:27 | 41.80583 | 17.32008 | 37172 ft | 474 kts | 159° |
| 2026-05-04 10:28 | 41.74507 | 17.35486 | 37169 ft | 475 kts | 158° |
| 2026-05-04 10:28 | 41.68445 | 17.39004 | 37176 ft | 475 kts | 158° |
| 2026-05-04 10:29 | 41.62372 | 17.42536 | 37166 ft | 476 kts | 158° |
| 2026-05-04 10:29 | 41.56288 | 17.46066 | 37172 ft | 477 kts | 158° |
| 2026-05-04 10:30 | 41.50187 | 17.49596 | 37168 ft | 478 kts | 158° |
| 2026-05-04 10:30 | 41.44077 | 17.53124 | 37171 ft | 479 kts | 158° |
| 2026-05-04 10:31 | 41.37958 | 17.56649 | 37168 ft | 479 kts | 158° |
| 2026-05-04 10:32 | 41.16538 | 17.68933 | 37172 ft | 480 kts | 158° |
| 2026-05-04 10:33 | 41.10411 | 17.72426 | 37173 ft | 480 kts | 158° |
| 2026-05-04 10:33 | 41.04278 | 17.75915 | 37041 ft | 482 kts | 158° |
| 2026-05-04 10:34 | 41.01196 | 17.77667 | 36692 ft | 480 kts | 158° |
| 2026-05-04 10:34 | 40.98143 | 17.79401 | 36322 ft | 474 kts | 158° |
| 2026-05-04 10:34 | 40.95128 | 17.81112 | 35967 ft | 470 kts | 158° |
| 2026-05-04 10:34 | 40.92129 | 17.82812 | 35580 ft | 467 kts | 158° |
| 2026-05-04 10:35 | 40.89148 | 17.84500 | 35197 ft | 464 kts | 159° |
| 2026-05-04 10:35 | 40.86192 | 17.86172 | 34820 ft | 461 kts | 159° |
| 2026-05-04 10:35 | 40.83246 | 17.87836 | 34441 ft | 459 kts | 159° |
| 2026-05-04 10:35 | 40.80324 | 17.89486 | 34061 ft | 456 kts | 159° |
| 2026-05-04 10:36 | 40.77408 | 17.91130 | 33616 ft | 454 kts | 159° |
| 2026-05-04 10:36 | 40.74522 | 17.92756 | 33226 ft | 451 kts | 159° |
| 2026-05-04 10:36 | 40.71735 | 17.94325 | 32863 ft | 448 kts | 159° |
| 2026-05-04 10:36 | 40.68871 | 17.95937 | 32501 ft | 446 kts | 158° |
| 2026-05-04 10:37 | 40.66032 | 17.97531 | 32139 ft | 443 kts | 158° |
| 2026-05-04 10:37 | 40.63275 | 17.99315 | 31768 ft | 441 kts | 148° |
| 2026-05-04 10:37 | 40.60819 | 18.01693 | 31435 ft | 437 kts | 137° |
| 2026-05-04 10:37 | 40.58692 | 18.04519 | 31078 ft | 433 kts | 126° |
| 2026-05-04 10:39 | 40.48396 | 18.23411 | 28909 ft | 415 kts | 122° |
| 2026-05-04 10:39 | 40.46716 | 18.26469 | 28562 ft | 411 kts | 122° |
| 2026-05-04 10:39 | 40.45053 | 18.29486 | 28195 ft | 408 kts | 122° |
| 2026-05-04 10:40 | 40.43392 | 18.32495 | 27858 ft | 405 kts | 122° |
| 2026-05-04 10:40 | 40.41739 | 18.35484 | 27496 ft | 402 kts | 122° |
| 2026-05-04 10:40 | 40.40097 | 18.38452 | 27160 ft | 400 kts | 122° |
| 2026-05-04 10:40 | 40.39021 | 18.40395 | 26936 ft | 398 kts | 122° |
| 2026-05-04 10:41 | 40.36872 | 18.44273 | 26493 ft | 394 kts | 122° |
| 2026-05-04 10:41 | 40.35262 | 18.47174 | 26153 ft | 392 kts | 122° |
| 2026-05-04 10:41 | 40.33658 | 18.50063 | 25821 ft | 390 kts | 122° |
| 2026-05-04 10:41 | 40.32073 | 18.52915 | 25489 ft | 388 kts | 122° |
| 2026-05-04 10:42 | 40.30497 | 18.55747 | 25159 ft | 386 kts | 122° |
| 2026-05-04 10:42 | 40.29456 | 18.57618 | 24943 ft | 385 kts | 122° |
| 2026-05-04 10:42 | 40.27880 | 18.60446 | 24612 ft | 383 kts | 122° |
| 2026-05-04 10:42 | 40.26311 | 18.63261 | 24283 ft | 381 kts | 122° |
| 2026-05-04 10:43 | 40.24748 | 18.66060 | 23954 ft | 380 kts | 122° |
| 2026-05-04 10:44 | 40.14039 | 18.85182 | 21538 ft | 364 kts | 122° |
| 2026-05-04 10:45 | 40.12545 | 18.87840 | 21206 ft | 362 kts | 122° |
| 2026-05-04 10:45 | 40.11059 | 18.90485 | 20899 ft | 360 kts | 122° |
| 2026-05-04 10:45 | 40.09578 | 18.93117 | 20577 ft | 358 kts | 122° |
| 2026-05-04 10:45 | 40.08109 | 18.95726 | 20260 ft | 356 kts | 122° |
| 2026-05-04 10:46 | 40.06641 | 18.98327 | 19942 ft | 354 kts | 122° |
| 2026-05-04 10:46 | 40.05108 | 19.00833 | 19618 ft | 355 kts | 131° |
| 2026-05-04 10:46 | 40.03281 | 19.03010 | 19329 ft | 354 kts | 137° |
| 2026-05-04 10:46 | 40.01393 | 19.05069 | 19016 ft | 353 kts | 138° |
| 2026-05-04 10:47 | 39.99501 | 19.07105 | 18699 ft | 352 kts | 138° |
| 2026-05-04 10:47 | 39.97624 | 19.09137 | 18376 ft | 351 kts | 137° |
| 2026-05-04 10:47 | 39.95756 | 19.11181 | 18015 ft | 349 kts | 137° |
| 2026-05-04 10:47 | 39.93905 | 19.13223 | 17700 ft | 348 kts | 137° |
| 2026-05-04 10:49 | 39.81305 | 19.27241 | 15501 ft | 334 kts | 136° |
| 2026-05-04 10:49 | 39.79515 | 19.29231 | 15197 ft | 333 kts | 136° |
| 2026-05-04 10:50 | 39.77786 | 19.31152 | 14899 ft | 331 kts | 136° |
| 2026-05-04 10:51 | 39.65544 | 19.44282 | 12665 ft | 324 kts | 152° |
| 2026-05-04 10:52 | 39.63435 | 19.45285 | 12367 ft | 324 kts | 166° |
| 2026-05-04 10:52 | 39.61209 | 19.45625 | 12067 ft | 322 kts | 180° |
| 2026-05-04 10:52 | 39.58984 | 19.45405 | 11764 ft | 319 kts | 191° |
| 2026-05-04 10:54 | 39.43988 | 19.42734 | 9836 ft | 303 kts | 179° |
| 2026-05-04 10:54 | 39.41887 | 19.42826 | 9538 ft | 301 kts | 176° |
| 2026-05-04 10:56 | 39.37119 | 19.54477 | 7548 ft | 266 kts | 73° |
| 2026-05-04 10:56 | 39.37517 | 19.56807 | 7288 ft | 266 kts | 74° |
| 2026-05-04 10:56 | 39.37875 | 19.59151 | 7012 ft | 265 kts | 75° |
| 2026-05-04 10:57 | 39.38207 | 19.61495 | 6738 ft | 265 kts | 76° |
| 2026-05-04 10:57 | 39.38521 | 19.63842 | 6456 ft | 265 kts | 77° |
| 2026-05-04 10:57 | 39.38825 | 19.66191 | 6162 ft | 265 kts | 77° |
| 2026-05-04 10:57 | 39.39120 | 19.68524 | 5883 ft | 264 kts | 77° |
| 2026-05-04 10:58 | 39.39410 | 19.70835 | 5600 ft | 263 kts | 77° |
| 2026-05-04 10:58 | 39.39700 | 19.73165 | 5333 ft | 262 kts | 78° |
| 2026-05-04 10:58 | 39.39833 | 19.75552 | 5027 ft | 265 kts | 86° |
| 2026-05-04 10:58 | 39.39838 | 19.78179 | 4808 ft | 261 kts | 87° |
| 2026-05-04 10:59 | 39.39844 | 19.80497 | 4662 ft | 255 kts | 86° |
| 2026-05-04 10:59 | 39.39862 | 19.82729 | 4547 ft | 248 kts | 86° |
| 2026-05-04 10:59 | 39.39886 | 19.84925 | 4436 ft | 241 kts | 86° |
| 2026-05-04 11:00 | 39.40149 | 19.88932 | 4157 ft | 227 kts | 69° |